createdAt,value
2017-05-03T00:01:18.010Z,8
2017-05-03T00:02:17.845Z,8
2017-05-03T00:03:17.780Z,8
2017-05-03T00:04:17.719Z,8
2017-05-03T00:05:17.357Z,8
2017-05-03T00:06:17.291Z,8
2017-05-03T00:07:17.233Z,8
2017-05-03T00:08:17.476Z,0
2017-05-03T00:09:17.107Z,0
2017-05-03T00:10:17.043Z,0
2017-05-03T00:11:17.382Z,0
2017-05-03T00:12:17.226Z,0
2017-05-03T00:13:16.863Z,0
2017-05-03T00:14:16.799Z,0
2017-05-03T00:15:16.736Z,0
2017-05-03T00:16:16.969Z,0
2017-05-03T00:17:16.613Z,0
2017-05-03T00:18:16.548Z,0
2017-05-03T00:19:16.792Z,0
2017-05-03T00:20:16.432Z,0
2017-05-03T00:21:16.357Z,0
2017-05-03T00:22:16.601Z,0
2017-05-03T00:23:16.539Z,0
2017-05-03T00:24:16.492Z,0
2017-05-03T00:25:15.814Z,0
2017-05-03T00:26:16.049Z,0
2017-05-03T00:27:16.285Z,0
2017-05-03T00:28:15.931Z,0
2017-05-03T00:29:15.879Z,0
2017-05-03T00:30:16.097Z,0
2017-05-03T00:31:16.037Z,0
2017-05-03T00:32:15.977Z,0
2017-05-03T00:33:15.615Z,0
2017-05-03T00:34:15.568Z,0
2017-05-03T00:35:15.788Z,0
2017-05-03T00:36:15.735Z,0
2017-05-03T00:37:15.666Z,0
2017-05-03T00:38:15.599Z,0
2017-05-03T00:39:15.544Z,0
2017-05-03T00:40:15.176Z,0
2017-05-03T00:41:15.415Z,0
2017-05-03T00:42:15.053Z,0
2017-05-03T00:43:15.292Z,0
2017-05-03T00:44:14.926Z,0
2017-05-03T00:45:14.869Z,8
2017-05-03T00:46:14.805Z,8
2017-05-03T00:47:15.047Z,8
2017-05-03T00:48:14.677Z,8
2017-05-03T00:49:14.913Z,8
2017-05-03T00:50:14.557Z,8
2017-05-03T00:51:14.794Z,8
2017-05-03T00:52:14.129Z,8
2017-05-03T00:53:14.369Z,8
2017-05-03T00:54:14.308Z,8
2017-05-03T00:55:14.544Z,8
2017-05-03T00:56:14.480Z,8
2017-05-03T00:57:14.130Z,8
2017-05-03T00:58:14.351Z,8
2017-05-03T00:59:13.994Z,8
2017-05-03T01:00:14.236Z,8
2017-05-03T01:01:14.166Z,8
2017-05-03T01:02:13.507Z,8
2017-05-03T01:03:14.058Z,8
2017-05-03T01:04:13.680Z,8
2017-05-03T01:05:13.918Z,8
2017-05-03T01:06:13.856Z,8
2017-05-03T01:07:13.492Z,8
2017-05-03T01:08:13.732Z,8
2017-05-03T01:09:13.672Z,8
2017-05-03T01:10:13.307Z,8
2017-05-03T01:11:13.548Z,8
2017-05-03T01:12:12.888Z,8
2017-05-03T01:13:13.421Z,8
2017-05-03T01:14:13.362Z,8
2017-05-03T01:15:12.694Z,8
2017-05-03T01:16:13.230Z,8
2017-05-03T01:17:13.176Z,8
2017-05-03T01:18:12.504Z,8
2017-05-03T01:19:13.050Z,8
2017-05-03T01:20:12.681Z,8
2017-05-03T01:21:12.923Z,8
2017-05-03T01:22:12.857Z,8
2017-05-03T01:23:12.798Z,8
2017-05-03T01:24:12.437Z,8
2017-05-03T01:25:12.376Z,8
2017-05-03T01:26:12.013Z,8
2017-05-03T01:27:12.543Z,8
2017-05-03T01:28:11.882Z,8
2017-05-03T01:29:12.426Z,8
2017-05-03T01:30:12.358Z,8
2017-05-03T01:31:12.296Z,8
2017-05-03T01:32:12.237Z,8
2017-05-03T01:33:12.174Z,8
2017-05-03T01:34:12.109Z,8
2017-05-03T01:35:12.045Z,8
2017-05-03T01:36:12.005Z,8
2017-05-03T01:37:11.927Z,8
2017-05-03T01:38:11.564Z,8
2017-05-03T01:39:11.800Z,8
2017-05-03T01:40:11.736Z,8
2017-05-03T01:41:11.677Z,8
2017-05-03T01:42:11.611Z,8
2017-05-03T01:43:11.550Z,8
2017-05-03T01:44:11.485Z,8
2017-05-03T01:45:11.130Z,8
2017-05-03T01:46:11.362Z,8
2017-05-03T01:47:11.302Z,8
2017-05-03T01:48:10.938Z,8
2017-05-03T01:49:11.179Z,8
2017-05-03T01:50:11.109Z,8
2017-05-03T01:51:11.054Z,8
2017-05-03T01:52:10.993Z,8
2017-05-03T01:53:10.327Z,8
2017-05-03T01:54:10.273Z,8
2017-05-03T01:55:10.799Z,8
2017-05-03T01:56:10.748Z,8
2017-05-03T01:57:10.379Z,8
2017-05-03T01:58:10.613Z,8
2017-05-03T01:59:10.254Z,8
2017-05-03T02:00:10.222Z,8
2017-05-03T02:01:10.430Z,8
2017-05-03T02:02:09.767Z,8
2017-05-03T02:03:10.309Z,8
2017-05-03T02:04:10.245Z,8
2017-05-03T02:05:09.879Z,8
2017-05-03T02:06:10.115Z,8
2017-05-03T02:07:10.051Z,8
2017-05-03T02:08:09.695Z,8
2017-05-03T02:09:09.632Z,8
2017-05-03T02:10:09.563Z,8
2017-05-03T02:11:09.502Z,8
2017-05-03T02:12:09.445Z,8
2017-05-03T02:13:09.680Z,8
2017-05-03T02:14:09.618Z,8
2017-05-03T02:15:09.553Z,8
2017-05-03T02:16:09.489Z,8
2017-05-03T02:17:09.429Z,8
2017-05-03T02:18:09.370Z,8
2017-05-03T02:19:09.304Z,8
2017-05-03T02:20:09.242Z,8
2017-05-03T02:21:09.183Z,8
2017-05-03T02:22:09.144Z,8
2017-05-03T02:23:08.753Z,8
2017-05-03T02:24:08.994Z,8
2017-05-03T02:25:08.933Z,8
2017-05-03T02:26:08.569Z,8
2017-05-03T02:27:08.808Z,8
2017-05-03T02:28:08.745Z,4
2017-05-03T02:29:08.683Z,4
2017-05-03T02:30:08.317Z,4
2017-05-03T02:31:08.258Z,4
2017-05-03T02:32:08.495Z,4
2017-05-03T02:33:08.436Z,4
2017-05-03T02:34:08.365Z,4
2017-05-03T02:35:08.307Z,4
2017-05-03T02:36:08.242Z,4
2017-05-03T02:37:08.180Z,4
2017-05-03T02:38:08.134Z,4
2017-05-03T02:39:08.057Z,4
2017-05-03T02:40:07.698Z,4
2017-05-03T02:41:07.933Z,4
2017-05-03T02:42:07.870Z,4
2017-05-03T02:43:07.812Z,4
2017-05-03T02:44:07.742Z,4
2017-05-03T02:45:07.390Z,4
2017-05-03T02:46:07.623Z,4
2017-05-03T02:47:07.560Z,4
2017-05-03T02:48:07.199Z,4
2017-05-03T02:49:07.138Z,4
2017-05-03T02:50:07.374Z,4
2017-05-03T02:51:07.308Z,4
2017-05-03T02:52:06.945Z,4
2017-05-03T02:53:06.896Z,4
2017-05-03T02:54:06.825Z,4
2017-05-03T02:55:07.061Z,4
2017-05-03T02:56:06.744Z,4
2017-05-03T02:57:06.937Z,4
2017-05-03T02:58:06.872Z,4
2017-05-03T02:59:06.809Z,4
2017-05-03T03:00:06.755Z,4
2017-05-03T03:01:06.715Z,4
2017-05-03T03:02:06.830Z,4
2017-05-03T03:03:06.574Z,4
2017-05-03T03:04:06.519Z,4
2017-05-03T03:05:06.592Z,4
2017-05-03T03:06:06.375Z,4
2017-05-03T03:07:06.315Z,4
2017-05-03T03:08:06.249Z,4
2017-05-03T03:09:06.196Z,4
2017-05-03T03:10:05.825Z,4
2017-05-03T03:11:06.064Z,4
2017-05-03T03:12:05.700Z,4
2017-05-03T03:13:05.938Z,4
2017-05-03T03:14:05.579Z,4
2017-05-03T03:15:05.812Z,4
2017-05-03T03:16:05.750Z,4
2017-05-03T03:17:05.689Z,4
2017-05-03T03:18:05.631Z,4
2017-05-03T03:19:05.565Z,4
2017-05-03T03:20:05.203Z,0
2017-05-03T03:21:05.444Z,0
2017-05-03T03:22:05.384Z,0
2017-05-03T03:23:05.318Z,0
2017-05-03T03:24:05.254Z,0
2017-05-03T03:25:04.905Z,0
2017-05-03T03:26:04.832Z,0
2017-05-03T03:27:05.069Z,4
2017-05-03T03:28:05.013Z,4
2017-05-03T03:29:04.941Z,4
2017-05-03T03:30:04.979Z,4
2017-05-03T03:31:04.854Z,4
2017-05-03T03:32:04.755Z,4
2017-05-03T03:33:04.696Z,4
2017-05-03T03:34:04.330Z,4
2017-05-03T03:35:04.570Z,4
2017-05-03T03:36:04.508Z,4
2017-05-03T03:37:04.445Z,4
2017-05-03T03:38:04.382Z,4
2017-05-03T03:39:04.334Z,4
2017-05-03T03:40:04.257Z,4
2017-05-03T03:41:04.199Z,4
2017-05-03T03:42:04.141Z,4
2017-05-03T03:43:04.079Z,4
2017-05-03T03:44:04.006Z,4
2017-05-03T03:45:03.946Z,4
2017-05-03T03:46:03.882Z,4
2017-05-03T03:47:03.816Z,4
2017-05-03T03:48:03.760Z,4
2017-05-03T03:49:03.694Z,4
2017-05-03T03:50:03.640Z,4
2017-05-03T03:51:03.274Z,4
2017-05-03T03:52:03.207Z,4
2017-05-03T03:53:03.455Z,4
2017-05-03T03:54:03.384Z,4
2017-05-03T03:55:03.322Z,4
2017-05-03T03:56:03.265Z,4
2017-05-03T03:57:03.197Z,4
2017-05-03T03:58:03.134Z,4
2017-05-03T03:59:03.075Z,4
2017-05-03T04:00:03.011Z,4
2017-05-03T04:01:02.945Z,4
2017-05-03T04:02:02.587Z,4
2017-05-03T04:03:02.825Z,4
2017-05-03T04:04:02.459Z,4
2017-05-03T04:05:02.698Z,4
2017-05-03T04:06:02.331Z,4
2017-05-03T04:07:02.573Z,4
2017-05-03T04:08:02.511Z,4
2017-05-03T04:09:02.477Z,4
2017-05-03T04:10:02.385Z,4
2017-05-03T04:11:02.320Z,8
2017-05-03T04:12:01.959Z,4
2017-05-03T04:13:02.195Z,8
2017-05-03T04:14:02.137Z,8
2017-05-03T04:15:02.083Z,8
2017-05-03T04:16:02.016Z,8
2017-05-03T04:17:01.949Z,4
2017-05-03T04:18:01.881Z,8
2017-05-03T04:19:01.835Z,8
2017-05-03T04:20:01.762Z,8
2017-05-03T04:21:01.397Z,4
2017-05-03T04:22:01.637Z,4
2017-05-03T04:23:01.576Z,4
2017-05-03T04:24:01.222Z,4
2017-05-03T04:25:01.452Z,4
2017-05-03T04:26:01.386Z,4
2017-05-03T04:27:00.728Z,4
2017-05-03T04:28:00.964Z,4
2017-05-03T04:29:00.900Z,4
2017-05-03T04:30:01.133Z,4
2017-05-03T04:31:01.069Z,4
2017-05-03T04:32:01.019Z,4
2017-05-03T04:33:00.950Z,4
2017-05-03T04:34:00.903Z,4
2017-05-03T04:35:00.827Z,8
2017-05-03T04:36:00.766Z,8
2017-05-03T04:37:00.698Z,8
2017-05-03T04:38:00.636Z,8
2017-05-03T04:39:00.575Z,8
2017-05-03T04:40:00.516Z,8
2017-05-03T04:41:00.446Z,8
2017-05-03T04:42:00.086Z,8
2017-05-03T04:43:00.327Z,8
2017-05-03T04:44:00.266Z,8
2017-05-03T04:45:00.201Z,8
2017-05-03T04:46:00.139Z,4
2017-05-03T04:47:00.073Z,8
2017-05-03T04:48:00.013Z,8
2017-05-03T04:48:59.951Z,8
2017-05-03T04:49:59.888Z,8
2017-05-03T04:50:59.828Z,8
2017-05-03T04:51:59.466Z,8
2017-05-03T04:52:59.703Z,8
2017-05-03T04:53:59.642Z,8
2017-05-03T04:54:59.578Z,8
2017-05-03T04:55:59.403Z,8
2017-05-03T04:56:59.457Z,4
2017-05-03T04:57:59.400Z,8
2017-05-03T04:58:59.327Z,8
2017-05-03T04:59:59.263Z,8
2017-05-03T05:00:59.198Z,8
2017-05-03T05:01:59.139Z,8
2017-05-03T05:02:59.074Z,8
2017-05-03T05:03:59.019Z,8
2017-05-03T05:04:58.951Z,8
2017-05-03T05:05:58.891Z,8
2017-05-03T05:06:58.822Z,8
2017-05-03T05:07:58.763Z,8
2017-05-03T05:08:58.700Z,8
2017-05-03T05:09:58.340Z,8
2017-05-03T05:10:57.973Z,8
2017-05-03T05:11:58.212Z,4
2017-05-03T05:12:58.455Z,4
2017-05-03T05:13:58.394Z,4
2017-05-03T05:14:58.323Z,4
2017-05-03T05:15:58.260Z,8
2017-05-03T05:16:58.198Z,8
2017-05-03T05:17:57.842Z,8
2017-05-03T05:18:57.774Z,8
2017-05-03T05:19:57.715Z,8
2017-05-03T05:20:57.960Z,8
2017-05-03T05:21:57.885Z,12
2017-05-03T05:22:57.826Z,8
2017-05-03T05:23:57.796Z,12
2017-05-03T05:24:57.702Z,12
2017-05-03T05:25:57.635Z,8
2017-05-03T05:26:57.579Z,8
2017-05-03T05:27:57.511Z,8
2017-05-03T05:28:57.451Z,8
2017-05-03T05:29:57.385Z,8
2017-05-03T05:30:57.021Z,8
2017-05-03T05:31:56.967Z,8
2017-05-03T05:32:56.905Z,8
2017-05-03T05:33:57.140Z,12
2017-05-03T05:34:57.074Z,12
2017-05-03T05:35:56.715Z,12
2017-05-03T05:36:56.648Z,12
2017-05-03T05:37:56.889Z,8
2017-05-03T05:38:56.825Z,8
2017-05-03T05:39:56.762Z,12
2017-05-03T05:40:56.698Z,12
2017-05-03T05:41:56.637Z,12
2017-05-03T05:42:56.575Z,8
2017-05-03T05:43:56.511Z,8
2017-05-03T05:44:56.449Z,12
2017-05-03T05:45:56.387Z,8
2017-05-03T05:46:56.024Z,12
2017-05-03T05:47:55.962Z,12
2017-05-03T05:48:55.903Z,12
2017-05-03T05:49:56.138Z,12
2017-05-03T05:50:56.073Z,12
2017-05-03T05:51:56.007Z,16
2017-05-03T05:52:55.646Z,12
2017-05-03T05:53:55.584Z,12
2017-05-03T05:54:55.829Z,12
2017-05-03T05:55:55.858Z,12
2017-05-03T05:56:55.399Z,12
2017-05-03T05:57:55.035Z,12
2017-05-03T05:58:55.274Z,12
2017-05-03T05:59:55.512Z,12
2017-05-03T06:00:55.695Z,12
2017-05-03T06:01:55.383Z,12
2017-05-03T06:02:55.327Z,12
2017-05-03T06:03:55.259Z,12
2017-05-03T06:04:54.907Z,16
2017-05-03T06:05:55.144Z,16
2017-05-03T06:06:55.072Z,16
2017-05-03T06:07:55.010Z,12
2017-05-03T06:08:54.648Z,16
2017-05-03T06:09:54.885Z,12
2017-05-03T06:10:54.529Z,16
2017-05-03T06:11:54.458Z,12
2017-05-03T06:12:54.399Z,12
2017-05-03T06:13:54.639Z,16
2017-05-03T06:14:54.307Z,12
2017-05-03T06:15:54.505Z,12
2017-05-03T06:16:54.443Z,16
2017-05-03T06:17:54.087Z,16
2017-05-03T06:18:54.324Z,16
2017-05-03T06:19:54.259Z,12
2017-05-03T06:20:54.204Z,12
2017-05-03T06:21:54.134Z,12
2017-05-03T06:22:54.073Z,16
2017-05-03T06:23:54.020Z,16
2017-05-03T06:24:53.943Z,16
2017-05-03T06:25:53.882Z,16
2017-05-03T06:26:53.822Z,16
2017-05-03T06:27:53.459Z,16
2017-05-03T06:28:53.701Z,16
2017-05-03T06:29:53.635Z,16
2017-05-03T06:30:53.566Z,16
2017-05-03T06:31:53.506Z,16
2017-05-03T06:32:53.449Z,16
2017-05-03T06:33:53.387Z,16
2017-05-03T06:34:53.320Z,20
2017-05-03T06:35:53.357Z,20
2017-05-03T06:36:53.194Z,20
2017-05-03T06:37:53.130Z,16
2017-05-03T06:38:53.080Z,20
2017-05-03T06:39:53.003Z,20
2017-05-03T06:40:52.894Z,16
2017-05-03T06:41:52.887Z,20
2017-05-03T06:42:52.816Z,20
2017-05-03T06:43:52.794Z,20
2017-05-03T06:44:52.402Z,20
2017-05-03T06:45:52.632Z,20
2017-05-03T06:46:52.271Z,20
2017-05-03T06:47:52.211Z,20
2017-05-03T06:48:52.454Z,24
2017-05-03T06:49:52.085Z,24
2017-05-03T06:50:52.016Z,24
2017-05-03T06:51:52.261Z,20
2017-05-03T06:52:52.198Z,20
2017-05-03T06:53:52.132Z,20
2017-05-03T06:54:52.068Z,24
2017-05-03T06:55:52.004Z,28
2017-05-03T06:56:51.945Z,32
2017-05-03T06:57:51.881Z,32
2017-05-03T06:58:51.831Z,28
2017-05-03T06:59:51.758Z,28
2017-05-03T07:00:51.694Z,28
2017-05-03T07:01:51.634Z,28
2017-05-03T07:02:51.577Z,28
2017-05-03T07:03:51.556Z,28
2017-05-03T07:04:51.145Z,28
2017-05-03T07:05:51.089Z,32
2017-05-03T07:06:51.319Z,32
2017-05-03T07:07:50.959Z,36
2017-05-03T07:08:51.201Z,40
2017-05-03T07:09:51.128Z,36
2017-05-03T07:10:51.109Z,36
2017-05-03T07:11:51.002Z,32
2017-05-03T07:12:50.645Z,28
2017-05-03T07:13:50.911Z,32
2017-05-03T07:14:50.841Z,32
2017-05-03T07:15:50.758Z,36
2017-05-03T07:16:50.693Z,36
2017-05-03T07:17:50.631Z,36
2017-05-03T07:18:50.618Z,36
2017-05-03T07:19:50.503Z,36
2017-05-03T07:20:50.438Z,36
2017-05-03T07:21:50.379Z,36
2017-05-03T07:22:50.336Z,36
2017-05-03T07:23:50.251Z,36
2017-05-03T07:24:49.903Z,36
2017-05-03T07:25:49.827Z,40
2017-05-03T07:26:50.066Z,44
2017-05-03T07:27:50.002Z,40
2017-05-03T07:28:49.941Z,40
2017-05-03T07:29:49.876Z,36
2017-05-03T07:30:49.821Z,40
2017-05-03T07:31:49.748Z,36
2017-05-03T07:32:49.703Z,40
2017-05-03T07:33:49.626Z,40
2017-05-03T07:34:49.575Z,36
2017-05-03T07:35:49.505Z,40
2017-05-03T07:36:49.137Z,40
2017-05-03T07:37:49.374Z,36
2017-05-03T07:38:49.020Z,36
2017-05-03T07:39:49.253Z,32
2017-05-03T07:40:49.196Z,32
2017-05-03T07:41:49.126Z,36
2017-05-03T07:42:49.064Z,40
2017-05-03T07:43:48.708Z,40
2017-05-03T07:44:48.937Z,36
2017-05-03T07:45:49.024Z,32
2017-05-03T07:46:48.859Z,32
2017-05-03T07:47:48.751Z,36
2017-05-03T07:48:48.685Z,36
2017-05-03T07:49:48.628Z,36
2017-05-03T07:50:48.515Z,44
2017-05-03T07:51:48.278Z,44
2017-05-03T07:52:49.161Z,48
2017-05-03T07:53:48.603Z,76
2017-05-03T07:54:48.312Z,60
2017-05-03T07:55:48.330Z,48
2017-05-03T07:56:48.240Z,48
2017-05-03T07:57:48.124Z,52
2017-05-03T07:58:48.232Z,52
2017-05-03T07:59:47.998Z,56
2017-05-03T08:00:48.159Z,56
2017-05-03T08:01:47.892Z,52
2017-05-03T08:02:47.849Z,76
2017-05-03T08:03:47.536Z,52
2017-05-03T08:04:47.685Z,52
2017-05-03T08:05:47.778Z,52
2017-05-03T08:06:47.561Z,56
2017-05-03T08:07:47.200Z,52
2017-05-03T08:08:47.583Z,48
2017-05-03T08:09:47.417Z,48
2017-05-03T08:10:47.350Z,48
2017-05-03T08:11:47.097Z,52
2017-05-03T08:12:47.002Z,52
2017-05-03T08:13:47.124Z,52
2017-05-03T08:14:47.062Z,48
2017-05-03T08:15:47.258Z,44
2017-05-03T08:16:46.937Z,48
2017-05-03T08:17:46.882Z,52
2017-05-03T08:18:46.778Z,56
2017-05-03T08:19:46.851Z,56
2017-05-03T08:20:47.716Z,60
2017-05-03T08:21:46.820Z,52
2017-05-03T08:22:46.641Z,64
2017-05-03T08:23:46.646Z,64
2017-05-03T08:24:46.569Z,72
2017-05-03T08:25:46.441Z,72
2017-05-03T08:26:46.341Z,76
2017-05-03T08:27:46.534Z,80
2017-05-03T08:28:46.054Z,76
2017-05-03T08:29:46.443Z,68
2017-05-03T08:30:46.323Z,72
2017-05-03T08:31:46.093Z,68
2017-05-03T08:32:46.077Z,68
2017-05-03T08:33:46.134Z,76
2017-05-03T08:34:45.849Z,72
2017-05-03T08:35:45.896Z,68
2017-05-03T08:36:45.835Z,60
2017-05-03T08:37:45.839Z,60
2017-05-03T08:38:45.941Z,56
2017-05-03T08:39:45.853Z,56
2017-05-03T08:40:46.634Z,52
2017-05-03T08:41:45.928Z,52
2017-05-03T08:42:45.273Z,48
2017-05-03T08:43:45.382Z,48
2017-05-03T08:44:45.390Z,48
2017-05-03T08:45:45.390Z,48
2017-05-03T08:46:44.513Z,52
2017-05-03T08:47:45.239Z,52
2017-05-03T08:48:44.762Z,52
2017-05-03T08:49:44.705Z,52
2017-05-03T08:50:44.842Z,48
2017-05-03T08:51:44.910Z,52
2017-05-03T08:52:44.883Z,56
2017-05-03T08:53:44.625Z,56
2017-05-03T08:54:44.578Z,56
2017-05-03T08:55:45.043Z,60
2017-05-03T08:56:44.542Z,60
2017-05-03T08:57:44.555Z,60
2017-05-03T08:58:44.243Z,64
2017-05-03T08:59:44.238Z,60
2017-05-03T09:00:44.211Z,56
2017-05-03T09:01:44.336Z,60
2017-05-03T09:02:44.220Z,56
2017-05-03T09:03:45.007Z,56
2017-05-03T09:04:44.004Z,52
2017-05-03T09:05:43.571Z,48
2017-05-03T09:06:43.503Z,52
2017-05-03T09:07:43.446Z,60
2017-05-03T09:08:43.389Z,68
2017-05-03T09:09:44.053Z,104
2017-05-03T09:10:43.706Z,100
2017-05-03T09:11:43.727Z,96
2017-05-03T09:12:43.633Z,64
2017-05-03T09:13:43.544Z,60
2017-05-03T09:14:43.495Z,60
2017-05-03T09:15:43.564Z,60
2017-05-03T09:16:43.238Z,64
2017-05-03T09:17:43.675Z,60
2017-05-03T09:18:43.094Z,64
2017-05-03T09:19:43.287Z,64
2017-05-03T09:20:42.583Z,64
2017-05-03T09:21:42.995Z,68
2017-05-03T09:22:43.003Z,76
2017-05-03T09:23:42.890Z,64
2017-05-03T09:24:42.920Z,76
2017-05-03T09:25:42.644Z,92
2017-05-03T09:26:42.726Z,68
2017-05-03T09:27:42.195Z,68
2017-05-03T09:28:42.432Z,64
2017-05-03T09:29:42.069Z,60
2017-05-03T09:30:42.606Z,68
2017-05-03T09:31:41.954Z,68
2017-05-03T09:32:42.183Z,60
2017-05-03T09:33:42.120Z,56
2017-05-03T09:34:42.061Z,52
2017-05-03T09:35:42.147Z,56
2017-05-03T09:36:41.949Z,56
2017-05-03T09:37:41.877Z,88
2017-05-03T09:38:41.825Z,80
2017-05-03T09:39:41.752Z,64
2017-05-03T09:40:41.387Z,52
2017-05-03T09:41:41.623Z,52
2017-05-03T09:42:41.563Z,52
2017-05-03T09:43:41.518Z,68
2017-05-03T09:44:41.436Z,128
2017-05-03T09:45:41.376Z,60
2017-05-03T09:46:41.019Z,112
2017-05-03T09:47:41.263Z,144
2017-05-03T09:48:41.219Z,92
2017-05-03T09:49:40.829Z,48
2017-05-03T09:50:41.072Z,120
2017-05-03T09:51:41.014Z,52
2017-05-03T09:52:40.670Z,64
2017-05-03T09:53:41.097Z,152
2017-05-03T09:54:40.522Z,144
2017-05-03T09:55:40.538Z,60
2017-05-03T09:56:40.399Z,60
2017-05-03T09:57:40.692Z,52
2017-05-03T09:58:40.574Z,60
2017-05-03T09:59:40.507Z,52
2017-05-03T10:00:40.675Z,48
2017-05-03T10:01:39.790Z,104
2017-05-03T10:02:40.333Z,88
2017-05-03T10:03:40.259Z,64
2017-05-03T10:04:40.201Z,112
2017-05-03T10:05:39.841Z,68
2017-05-03T10:06:40.082Z,56
2017-05-03T10:07:40.015Z,48
2017-05-03T10:08:39.959Z,48
2017-05-03T10:09:39.894Z,64
2017-05-03T10:10:39.829Z,68
2017-05-03T10:11:39.789Z,200
2017-05-03T10:12:39.112Z,100
2017-05-03T10:13:39.648Z,100
2017-05-03T10:14:39.609Z,168
2017-05-03T10:15:39.560Z,160
2017-05-03T10:16:39.464Z,208
2017-05-03T10:17:39.098Z,204
2017-05-03T10:18:39.340Z,208
2017-05-03T10:19:39.279Z,204
2017-05-03T10:20:39.212Z,228
2017-05-03T10:21:38.851Z,144
2017-05-03T10:22:39.099Z,56
2017-05-03T10:23:38.729Z,60
2017-05-03T10:24:38.969Z,236
2017-05-03T10:25:38.904Z,208
2017-05-03T10:26:38.844Z,72
2017-05-03T10:27:38.776Z,80
2017-05-03T10:28:38.715Z,108
2017-05-03T10:29:38.651Z,68
2017-05-03T10:30:38.591Z,192
2017-05-03T10:31:38.228Z,64
2017-05-03T10:32:38.466Z,100
2017-05-03T10:33:38.102Z,188
2017-05-03T10:34:38.340Z,124
2017-05-03T10:35:38.279Z,100
2017-05-03T10:36:37.916Z,112
2017-05-03T10:37:38.160Z,144
2017-05-03T10:38:38.090Z,64
2017-05-03T10:39:38.053Z,64
2017-05-03T10:40:38.067Z,56
2017-05-03T10:41:37.927Z,96
2017-05-03T10:42:37.846Z,148
2017-05-03T10:43:37.796Z,64
2017-05-03T10:44:37.421Z,252
2017-05-03T10:45:37.809Z,240
2017-05-03T10:46:37.594Z,96
2017-05-03T10:47:37.239Z,224
2017-05-03T10:48:37.480Z,176
2017-05-03T10:49:37.110Z,228
2017-05-03T10:50:37.351Z,224
2017-05-03T10:51:37.312Z,200
2017-05-03T10:52:37.235Z,208
2017-05-03T10:53:36.566Z,216
2017-05-03T10:54:37.110Z,100
2017-05-03T10:55:36.740Z,180
2017-05-03T10:56:36.980Z,84
2017-05-03T10:57:36.915Z,92
2017-05-03T10:58:36.856Z,72
2017-05-03T10:59:36.808Z,188
2017-05-03T11:00:36.448Z,68
2017-05-03T11:01:36.670Z,100
2017-05-03T11:02:36.617Z,68
2017-05-03T11:03:36.555Z,184
2017-05-03T11:04:36.491Z,176
2017-05-03T11:05:36.120Z,80
2017-05-03T11:06:36.376Z,156
2017-05-03T11:07:36.298Z,80
2017-05-03T11:08:36.234Z,108
2017-05-03T11:09:36.183Z,104
2017-05-03T11:10:36.117Z,68
2017-05-03T11:11:36.049Z,112
2017-05-03T11:12:35.992Z,176
2017-05-03T11:13:35.928Z,184
2017-05-03T11:14:35.894Z,76
2017-05-03T11:15:35.807Z,176
2017-05-03T11:16:35.454Z,80
2017-05-03T11:17:35.677Z,180
2017-05-03T11:18:35.318Z,112
2017-05-03T11:19:35.557Z,184
2017-05-03T11:20:35.494Z,64
2017-05-03T11:21:35.448Z,56
2017-05-03T11:22:35.096Z,56
2017-05-03T11:23:35.077Z,56
2017-05-03T11:24:34.963Z,64
2017-05-03T11:25:35.193Z,72
2017-05-03T11:26:35.134Z,76
2017-05-03T11:27:35.011Z,188
2017-05-03T11:28:35.001Z,64
2017-05-03T11:29:34.952Z,68
2017-05-03T11:30:34.874Z,96
2017-05-03T11:31:34.541Z,92
2017-05-03T11:32:34.475Z,84
2017-05-03T11:33:34.692Z,172
2017-05-03T11:34:34.631Z,76
2017-05-03T11:35:34.689Z,88
2017-05-03T11:36:34.517Z,188
2017-05-03T11:37:34.166Z,188
2017-05-03T11:38:34.093Z,188
2017-05-03T11:39:34.045Z,192
2017-05-03T11:40:34.613Z,208
2017-05-03T11:41:33.903Z,216
2017-05-03T11:42:34.145Z,208
2017-05-03T11:43:34.098Z,200
2017-05-03T11:44:33.718Z,88
2017-05-03T11:45:33.752Z,96
2017-05-03T11:46:33.892Z,68
2017-05-03T11:47:33.849Z,64
2017-05-03T11:48:33.777Z,60
2017-05-03T11:49:33.731Z,64
2017-05-03T11:50:33.642Z,68
2017-05-03T11:51:33.596Z,84
2017-05-03T11:52:33.243Z,84
2017-05-03T11:53:33.458Z,72
2017-05-03T11:54:33.429Z,72
2017-05-03T11:55:33.496Z,72
2017-05-03T11:56:32.991Z,68
2017-05-03T11:57:32.946Z,76
2017-05-03T11:58:33.160Z,80
2017-05-03T11:59:32.511Z,160
2017-05-03T12:00:33.276Z,172
2017-05-03T12:01:32.972Z,164
2017-05-03T12:02:32.906Z,168
2017-05-03T12:03:32.845Z,92
2017-05-03T12:04:32.939Z,80
2017-05-03T12:05:32.727Z,156
2017-05-03T12:06:32.665Z,160
2017-05-03T12:07:32.307Z,120
2017-05-03T12:08:32.243Z,168
2017-05-03T12:09:32.200Z,164
2017-05-03T12:10:32.417Z,84
2017-05-03T12:11:31.758Z,76
2017-05-03T12:12:32.313Z,76
2017-05-03T12:13:32.240Z,88
2017-05-03T12:14:32.528Z,168
2017-05-03T12:15:32.119Z,164
2017-05-03T12:16:32.061Z,88
2017-05-03T12:17:31.990Z,80
2017-05-03T12:18:31.935Z,84
2017-05-03T12:19:31.712Z,92
2017-05-03T12:20:31.761Z,76
2017-05-03T12:21:31.745Z,68
2017-05-03T12:22:31.690Z,68
2017-05-03T12:23:31.528Z,68
2017-05-03T12:24:31.564Z,68
2017-05-03T12:25:31.374Z,80
2017-05-03T12:26:31.577Z,80
2017-05-03T12:27:31.405Z,152
2017-05-03T12:28:31.317Z,148
2017-05-03T12:29:31.254Z,80
2017-05-03T12:30:30.612Z,76
2017-05-03T12:31:30.840Z,76
2017-05-03T12:32:30.783Z,84
2017-05-03T12:33:30.717Z,72
2017-05-03T12:34:30.649Z,84
2017-05-03T12:35:30.901Z,148
2017-05-03T12:36:30.835Z,76
2017-05-03T12:37:30.845Z,64
2017-05-03T12:38:30.713Z,64
2017-05-03T12:39:30.655Z,64
2017-05-03T12:40:30.282Z,64
2017-05-03T12:41:30.519Z,68
2017-05-03T12:42:30.427Z,132
2017-05-03T12:43:30.399Z,140
2017-05-03T12:44:30.038Z,144
2017-05-03T12:45:30.280Z,140
2017-05-03T12:46:29.623Z,108
2017-05-03T12:47:30.125Z,88
2017-05-03T12:48:29.511Z,96
2017-05-03T12:49:29.822Z,64
2017-05-03T12:50:29.876Z,72
2017-05-03T12:51:29.919Z,64
2017-05-03T12:52:30.169Z,52
2017-05-03T12:53:29.794Z,116
2017-05-03T12:54:29.723Z,104
2017-05-03T12:55:29.677Z,108
2017-05-03T12:56:29.606Z,64
2017-05-03T12:57:29.551Z,56
2017-05-03T12:58:29.504Z,60
2017-05-03T12:59:29.429Z,76
2017-05-03T13:00:29.359Z,64
2017-05-03T13:01:29.310Z,148
2017-05-03T13:02:29.102Z,56
2017-05-03T13:03:28.883Z,56
2017-05-03T13:04:29.123Z,60
2017-05-03T13:05:29.049Z,92
2017-05-03T13:06:29.028Z,64
2017-05-03T13:07:28.637Z,104
2017-05-03T13:08:28.278Z,152
2017-05-03T13:09:28.534Z,56
2017-05-03T13:10:28.747Z,44
2017-05-03T13:11:28.383Z,40
2017-05-03T13:12:28.329Z,40
2017-05-03T13:13:28.913Z,40
2017-05-03T13:14:28.502Z,44
2017-05-03T13:15:28.447Z,44
2017-05-03T13:16:28.375Z,44
2017-05-03T13:17:28.311Z,48
2017-05-03T13:18:28.495Z,52
2017-05-03T13:19:28.190Z,76
2017-05-03T13:20:28.136Z,48
2017-05-03T13:21:28.089Z,48
2017-05-03T13:22:28.010Z,52
2017-05-03T13:23:27.946Z,56
2017-05-03T13:24:27.901Z,56
2017-05-03T13:25:27.522Z,60
2017-05-03T13:26:27.759Z,60
2017-05-03T13:27:27.396Z,52
2017-05-03T13:28:27.937Z,60
2017-05-03T13:29:27.580Z,100
2017-05-03T13:30:27.510Z,156
2017-05-03T13:31:27.465Z,112
2017-05-03T13:32:27.094Z,156
2017-05-03T13:33:27.025Z,156
2017-05-03T13:34:27.283Z,140
2017-05-03T13:35:26.912Z,68
2017-05-03T13:36:27.143Z,60
2017-05-03T13:37:27.076Z,64
2017-05-03T13:38:27.176Z,44
2017-05-03T13:39:26.965Z,44
2017-05-03T13:40:26.901Z,40
2017-05-03T13:41:26.241Z,32
2017-05-03T13:42:26.474Z,28
2017-05-03T13:43:27.046Z,28
2017-05-03T13:44:26.652Z,28
2017-05-03T13:45:26.583Z,28
2017-05-03T13:46:26.576Z,32
2017-05-03T13:47:26.602Z,32
2017-05-03T13:48:26.255Z,32
2017-05-03T13:49:26.047Z,32
2017-05-03T13:50:26.543Z,40
2017-05-03T13:51:26.243Z,40
2017-05-03T13:52:26.150Z,44
2017-05-03T13:53:26.092Z,44
2017-05-03T13:54:25.436Z,48
2017-05-03T13:55:26.229Z,48
2017-05-03T13:56:26.058Z,48
2017-05-03T13:57:25.838Z,48
2017-05-03T13:58:25.488Z,48
2017-05-03T13:59:25.722Z,44
2017-05-03T14:00:25.658Z,44
2017-05-03T14:01:25.600Z,36
2017-05-03T14:02:25.531Z,40
2017-05-03T14:03:25.471Z,36
2017-05-03T14:04:25.122Z,44
2017-05-03T14:05:25.349Z,40
2017-05-03T14:06:25.435Z,48
2017-05-03T14:07:25.232Z,56
2017-05-03T14:08:25.158Z,60
2017-05-03T14:09:24.808Z,60
2017-05-03T14:10:25.040Z,60
2017-05-03T14:11:24.677Z,76
2017-05-03T14:12:24.920Z,52
2017-05-03T14:13:24.879Z,60
2017-05-03T14:14:24.794Z,64
2017-05-03T14:15:24.729Z,48
2017-05-03T14:16:24.672Z,36
2017-05-03T14:17:24.612Z,40
2017-05-03T14:18:24.548Z,40
2017-05-03T14:19:24.583Z,36
2017-05-03T14:20:24.683Z,36
2017-05-03T14:21:24.066Z,32
2017-05-03T14:22:24.003Z,32
2017-05-03T14:23:24.241Z,32
2017-05-03T14:24:24.178Z,28